Time;durP1;ratioP1;P1;durP2;ratioP2;P2;SDS_P1;SDS_P2;PMS_P1;PMS_P2;Temp;Humidity;BMP_temperature;BMP_pressure;BME280_temperature;BME280_humidity;BME280_pressure;Samples;Min_cycle;Max_cycle;Signal;HPM_P1;HPM_P2
2023/04/15 00:00:58;;;;;;;;;16.67;14.00;;;;;;;;118118;1178;25184;-59
2023/04/15 00:03:27;;;;;;;;;12.00;12.00;;;;;;;;118213;1177;25370;-59
2023/04/15 00:05:57;;;;;;;;;12.50;12.00;;;;;;;;118260;1177;24752;-56
2023/04/15 00:08:25;;;;;;;;;13.75;10.50;;;;;;;;118199;1184;24866;-59
2023/04/15 00:10:54;;;;;;;;;15.33;12.00;;;;;;;;117962;1189;25609;-58
2023/04/15 00:13:22;;;;;;;;;17.33;12.33;;;;;;;;118125;1190;24886;-58
2023/04/15 00:15:51;;;;;;;;;16.25;16.25;;;;;;;;117860;1190;25689;-59
2023/04/15 00:18:19;;;;;;;;;14.00;12.67;;;;;;;;117901;1180;25675;-59
2023/04/15 00:20:48;;;;;;;;;17.00;15.00;;;;;;;;118173;1177;25263;-60
2023/04/15 00:23:16;;;;;;;;;15.50;12.75;;;;;;;;118169;1178;25222;-57
2023/04/15 00:25:46;;;;;;;;;10.50;9.50;;;;;;;;117997;1190;24965;-56
2023/04/15 00:28:14;;;;;;;;;13.00;12.33;;;;;;;;117903;1177;24794;-56
2023/04/15 00:30:43;;;;;;;;;14.67;12.00;;;;;;;;117884;1179;25486;-58
2023/04/15 00:33:12;;;;;;;;;11.25;11.25;;;;;;;;117842;1190;24882;-58
2023/04/15 00:35:41;;;;;;;;;13.00;11.25;;;;;;;;117840;1177;25248;-62
2023/04/15 00:38:10;;;;;;;;;13.00;10.50;;;;;;;;117955;1177;25142;-61
2023/04/15 00:40:38;;;;;;;;;12.33;10.00;;;;;;;;118025;1177;25640;-62
2023/04/15 00:43:07;;;;;;;;;11.00;11.00;;;;;;;;117917;1187;24737;-58
2023/04/15 00:45:35;;;;;;;;;16.00;12.33;;;;;;;;117845;1181;25427;-58
2023/04/15 00:48:04;;;;;;;;;14.75;13.00;;;;;;;;118139;1187;24725;-58
2023/04/15 00:50:33;;;;;;;;;10.00;9.00;;;;;;;;118145;1184;24887;-58
2023/04/15 00:53:01;;;;;;;;;14.00;14.00;;;;;;;;118159;1177;26145;-58
2023/04/15 00:55:30;;;;;;;;;16.50;11.50;;;;;;;;118184;1178;25005;-58
2023/04/15 00:57:58;;;;;;;;;12.00;11.00;;;;;;;;117969;1179;24814;-58
2023/04/15 01:00:27;;;;;;;;;11.67;11.00;;;;;;;;117942;1179;25443;-58
2023/04/15 01:02:56;;;;;;;;;12.33;11.67;;;;;;;;118121;1177;25696;-58
2023/04/15 01:05:25;;;;;;;;;14.50;12.00;;;;;;;;118143;1190;25297;-58
2023/04/15 01:07:54;;;;;;;;;12.00;12.00;;;;;;;;118121;1177;25763;-58
2023/04/15 01:10:22;;;;;;;;;13.50;13.00;;;;;;;;117936;1178;24856;-58
2023/04/15 01:12:51;;;;;;;;;11.50;9.75;;;;;;;;118168;1177;25374;-58
2023/04/15 01:15:20;;;;;;;;;13.00;10.50;;;;;;;;117904;1180;25397;-58
2023/04/15 01:17:49;;;;;;;;;13.50;11.00;;;;;;;;117973;1180;25072;-58
2023/04/15 01:20:19;;;;;;;;;12.00;12.00;;;;;;;;118157;1189;25648;-58
2023/04/15 01:22:48;;;;;;;;;13.00;13.00;;;;;;;;118170;1177;25047;-58
2023/04/15 01:25:30;;;;;;;;;11.00;10.67;;;;;;;;118165;1178;24756;-58
2023/04/15 01:27:58;;;;;;;;;17.00;13.00;;;;;;;;118167;1190;24884;-58
2023/04/15 01:30:27;;;;;;;;;14.00;13.00;;;;;;;;118101;1190;25563;-58
2023/04/15 01:32:55;;;;;;;;;17.00;11.50;;;;;;;;118151;1188;25308;-58
2023/04/15 01:35:24;;;;;;;;;7.33;7.33;;;;;;;;118158;1189;24854;-58
2023/04/15 01:37:54;;;;;;;;;12.00;11.50;;;;;;;;118157;1189;25627;-58
2023/04/15 01:40:22;;;;;;;;;14.00;12.00;;;;;;;;117883;1190;24941;-58
2023/04/15 01:42:51;;;;;;;;;12.00;12.00;;;;;;;;117913;1181;24997;-58
2023/04/15 01:45:20;;;;;;;;;12.00;12.00;;;;;;;;117977;1184;25254;-58
2023/04/15 01:47:49;;;;;;;;;13.50;11.50;;;;;;;;117932;1190;24713;-58
2023/04/15 01:50:19;;;;;;;;;11.67;9.67;;;;;;;;118306;1190;24865;-58
2023/04/15 01:52:47;;;;;;;;;13.50;10.00;;;;;;;;118055;1190;25157;-68
2023/04/15 01:55:16;;;;;;;;;11.25;10.25;;;;;;;;117906;1187;25372;-61
2023/04/15 01:57:45;;;;;;;;;10.00;10.00;;;;;;;;117961;1187;25020;-64
2023/04/15 02:00:14;;;;;;;;;11.67;10.67;;;;;;;;118187;1177;25188;-58
2023/04/15 02:02:42;;;;;;;;;15.00;12.75;;;;;;;;118214;1190;25072;-58
2023/04/15 02:05:11;;;;;;;;;10.67;10.00;;;;;;;;118211;1189;25670;-58
2023/04/15 02:07:39;;;;;;;;;11.00;10.50;;;;;;;;117895;1180;25310;-59
2023/04/15 02:10:09;;;;;;;;;11.50;10.00;;;;;;;;118169;1182;25708;-56
2023/04/15 02:12:37;;;;;;;;;9.33;8.00;;;;;;;;117900;1179;25202;-57
2023/04/15 02:15:06;;;;;;;;;11.50;11.50;;;;;;;;118154;1182;24781;-58
2023/04/15 02:17:36;;;;;;;;;11.00;9.50;;;;;;;;118146;1184;25352;-58
2023/04/15 02:20:05;;;;;;;;;12.00;12.00;;;;;;;;118156;1184;24965;-58
2023/04/15 02:22:34;;;;;;;;;15.25;10.00;;;;;;;;117919;1187;25373;-58
2023/04/15 02:25:03;;;;;;;;;9.00;8.00;;;;;;;;118128;1190;25177;-59
2023/04/15 02:27:31;;;;;;;;;13.00;12.00;;;;;;;;118163;1190;24968;-58
2023/04/15 02:30:00;;;;;;;;;9.67;9.00;;;;;;;;118189;1182;25213;-58
2023/04/15 02:32:28;;;;;;;;;10.00;10.00;;;;;;;;118148;1182;24773;-58
2023/04/15 02:35:01;;;;;;;;;10.75;9.25;;;;;;;;117981;1182;25508;-58
2023/04/15 02:37:31;;;;;;;;;10.33;10.33;;;;;;;;118182;1187;25633;-58
2023/04/15 02:40:00;;;;;;;;;11.50;10.50;;;;;;;;118134;1177;24903;-59
2023/04/15 02:42:29;;;;;;;;;17.00;12.00;;;;;;;;118170;1190;24701;-59
2023/04/15 02:44:58;;;;;;;;;13.00;11.00;;;;;;;;118204;1177;26357;-59
2023/04/15 02:47:26;;;;;;;;;11.00;9.00;;;;;;;;118207;1177;24917;-58
2023/04/15 02:49:54;;;;;;;;;11.00;11.00;;;;;;;;118148;1184;25377;-58
2023/04/15 02:52:24;;;;;;;;;11.25;9.75;;;;;;;;118096;1187;24968;-59
2023/04/15 02:54:56;;;;;;;;;16.67;12.00;;;;;;;;118156;1190;24813;-59
2023/04/15 02:57:25;;;;;;;;;12.25;11.00;;;;;;;;117927;1190;25053;-59
2023/04/15 02:59:53;;;;;;;;;14.67;12.33;;;;;;;;118242;1178;25435;-58
2023/04/15 03:02:22;;;;;;;;;15.25;10.25;;;;;;;;117832;1181;25022;-58
2023/04/15 03:04:50;;;;;;;;;12.00;11.00;;;;;;;;118128;1183;25398;-58
2023/04/15 03:07:19;;;;;;;;;14.00;11.00;;;;;;;;117854;1177;25270;-58
2023/04/15 03:09:47;;;;;;;;;12.25;10.00;;;;;;;;118070;1190;25165;-56
2023/04/15 03:12:16;;;;;;;;;12.50;11.75;;;;;;;;118169;1183;26423;-56
2023/04/15 03:14:44;;;;;;;;;8.00;8.00;;;;;;;;118103;1178;25330;-57
2023/04/15 03:17:12;;;;;;;;;9.33;8.33;;;;;;;;118140;1190;25194;-57
2023/04/15 03:19:41;;;;;;;;;10.00;10.00;;;;;;;;118104;1182;25075;-57
2023/04/15 03:22:09;;;;;;;;;13.00;12.00;;;;;;;;118148;1184;25096;-56
2023/04/15 03:24:38;;;;;;;;;12.00;10.33;;;;;;;;118182;1177;25044;-56
2023/04/15 03:27:06;;;;;;;;;12.50;12.00;;;;;;;;117944;1179;24792;-56
2023/04/15 03:29:35;;;;;;;;;10.00;9.67;;;;;;;;118162;1190;25197;-56
2023/04/15 03:32:04;;;;;;;;;16.00;9.75;;;;;;;;118163;1178;25227;-57
2023/04/15 03:34:33;;;;;;;;;9.50;9.00;;;;;;;;118146;1182;25648;-57
2023/04/15 03:37:01;;;;;;;;;14.67;11.00;;;;;;;;118148;1190;25534;-57
2023/04/15 03:39:29;;;;;;;;;8.00;8.00;;;;;;;;118181;1190;25394;-57
2023/04/15 03:41:58;;;;;;;;;9.00;7.00;;;;;;;;118097;1190;24922;-57
2023/04/15 03:44:26;;;;;;;;;11.25;9.50;;;;;;;;118041;1187;25565;-57
2023/04/15 03:46:55;;;;;;;;;12.00;11.00;;;;;;;;117969;1180;24856;-58
2023/04/15 03:49:24;;;;;;;;;14.00;11.00;;;;;;;;118170;1177;25208;-57
2023/04/15 03:51:52;;;;;;;;;15.67;9.67;;;;;;;;118159;1178;25680;-58
2023/04/15 03:54:21;;;;;;;;;9.33;9.33;;;;;;;;118142;1190;25360;-57
2023/04/15 03:56:49;;;;;;;;;9.00;9.00;;;;;;;;118109;1178;24958;-58
2023/04/15 03:59:17;;;;;;;;;11.67;10.00;;;;;;;;118093;1177;24810;-57
2023/04/15 04:01:46;;;;;;;;;11.00;10.00;;;;;;;;118127;1177;25270;-58
2023/04/15 04:04:14;;;;;;;;;11.33;10.33;;;;;;;;118137;1178;25687;-59
2023/04/15 04:06:43;;;;;;;;;13.00;11.25;;;;;;;;118141;1177;24763;-59
2023/04/15 04:09:11;;;;;;;;;8.00;7.50;;;;;;;;117883;1179;24929;-58
2023/04/15 04:11:40;;;;;;;;;11.50;10.50;;;;;;;;117838;1177;25550;-59
2023/04/15 04:14:08;;;;;;;;;12.00;10.50;;;;;;;;117918;1177;25847;-60
2023/04/15 04:16:37;;;;;;;;;10.50;9.00;;;;;;;;118153;1177;24776;-60
2023/04/15 04:19:05;;;;;;;;;8.50;8.50;;;;;;;;118246;1184;24817;-63
2023/04/15 04:21:35;;;;;;;;;8.75;8.00;;;;;;;;118173;1184;25630;-63
2023/04/15 04:24:03;;;;;;;;;11.00;9.00;;;;;;;;117868;1190;24873;-59
2023/04/15 04:26:32;;;;;;;;;0.00;0.00;;;;;;;;118166;1190;25747;-58
2023/04/15 04:29:00;;;;;;;;;10.00;8.00;;;;;;;;118144;1190;25575;-58
2023/04/15 04:31:29;;;;;;;;;7.67;7.67;;;;;;;;118150;1184;25207;-59
2023/04/15 04:33:57;;;;;;;;;10.75;9.00;;;;;;;;118086;1190;24979;-59
2023/04/15 04:36:26;;;;;;;;;8.33;8.33;;;;;;;;118194;1178;25008;-59
2023/04/15 04:38:54;;;;;;;;;13.75;10.25;;;;;;;;118272;1177;25126;-59
2023/04/15 04:41:23;;;;;;;;;9.00;9.00;;;;;;;;118008;1177;25484;-59
2023/04/15 04:43:51;;;;;;;;;8.67;8.67;;;;;;;;117835;1177;25071;-58
2023/04/15 04:46:20;;;;;;;;;8.00;6.00;;;;;;;;117872;1180;25001;-59
2023/04/15 04:48:49;;;;;;;;;14.00;11.25;;;;;;;;117959;1177;26407;-59
2023/04/15 04:51:18;;;;;;;;;9.00;9.00;;;;;;;;117993;1190;25664;-60
2023/04/15 04:53:46;;;;;;;;;10.50;9.00;;;;;;;;117958;1182;25236;-59
2023/04/15 04:56:14;;;;;;;;;9.25;8.25;;;;;;;;118139;1177;25409;-58
2023/04/15 04:58:43;;;;;;;;;9.50;7.00;;;;;;;;117964;1184;25144;-59
2023/04/15 05:01:11;;;;;;;;;7.75;7.50;;;;;;;;118133;1185;25580;-58
2023/04/15 05:03:40;;;;;;;;;10.33;8.00;;;;;;;;118132;1177;25614;-59
2023/04/15 05:06:09;;;;;;;;;12.50;8.50;;;;;;;;117911;1183;24896;-58
2023/04/15 05:08:38;;;;;;;;;10.67;10.33;;;;;;;;117989;1177;24867;-59
2023/04/15 05:11:07;;;;;;;;;10.00;9.33;;;;;;;;118062;1190;25521;-57
2023/04/15 05:13:37;;;;;;;;;10.33;8.67;;;;;;;;118278;1177;25076;-64
2023/04/15 05:16:06;;;;;;;;;7.33;6.33;;;;;;;;118223;1177;25230;-67
2023/04/15 05:18:35;;;;;;;;;9.25;8.75;;;;;;;;117984;1180;26352;-67
2023/04/15 05:21:04;;;;;;;;;7.67;7.67;;;;;;;;118130;1177;24857;-58
2023/04/15 05:23:32;;;;;;;;;12.33;9.00;;;;;;;;118187;1190;25511;-58
2023/04/15 05:26:01;;;;;;;;;7.00;6.00;;;;;;;;118147;1177;24798;-59
2023/04/15 05:28:29;;;;;;;;;8.75;8.00;;;;;;;;118105;1187;25921;-59
2023/04/15 05:30:58;;;;;;;;;6.50;6.50;;;;;;;;117917;1180;24814;-59
2023/04/15 05:33:26;;;;;;;;;7.50;7.50;;;;;;;;117950;1184;24982;-59
2023/04/15 05:35:55;;;;;;;;;7.00;6.50;;;;;;;;117888;1189;25495;-59
2023/04/15 05:38:23;;;;;;;;;9.25;8.00;;;;;;;;118150;1190;25623;-58
2023/04/15 05:40:52;;;;;;;;;10.00;8.75;;;;;;;;117886;1180;24999;-60
2023/04/15 05:43:20;;;;;;;;;7.50;7.00;;;;;;;;118081;1177;25380;-59
2023/04/15 05:45:48;;;;;;;;;7.75;7.75;;;;;;;;118130;1177;25695;-59
2023/04/15 05:48:17;;;;;;;;;10.50;8.75;;;;;;;;118151;1190;24922;-58
2023/04/15 05:50:46;;;;;;;;;7.00;6.25;;;;;;;;118167;1177;25525;-59
2023/04/15 05:53:14;;;;;;;;;7.33;7.00;;;;;;;;118129;1190;25573;-58
2023/04/15 05:55:42;;;;;;;;;7.67;7.67;;;;;;;;118148;1177;25643;-59
2023/04/15 05:58:11;;;;;;;;;7.50;7.50;;;;;;;;118081;1187;25616;-59
2023/04/15 06:00:39;;;;;;;;;9.50;8.00;;;;;;;;117911;1187;25002;-59
2023/04/15 06:03:08;;;;;;;;;10.67;9.67;;;;;;;;117951;1185;25477;-59
2023/04/15 06:05:37;;;;;;;;;7.00;7.00;;;;;;;;118168;1184;24905;-59
2023/04/15 06:08:05;;;;;;;;;8.50;8.50;;;;;;;;118138;1178;25355;-60
2023/04/15 06:10:35;;;;;;;;;7.25;6.25;;;;;;;;118178;1177;24863;-62
2023/04/15 06:13:03;;;;;;;;;6.67;6.67;;;;;;;;118146;1188;25553;-59
2023/04/15 06:15:32;;;;;;;;;9.50;8.00;;;;;;;;118091;1177;25056;-71
2023/04/15 06:18:00;;;;;;;;;34.00;24.67;;;;;;;;117911;1179;24909;-60
2023/04/15 06:20:29;;;;;;;;;25.00;17.33;;;;;;;;117848;1177;25061;-61
2023/04/15 06:22:58;;;;;;;;;22.25;15.25;;;;;;;;118032;1177;25169;-61
2023/04/15 06:25:26;;;;;;;;;25.33;17.00;;;;;;;;117908;1180;25312;-63
2023/04/15 06:27:55;;;;;;;;;25.50;15.50;;;;;;;;118158;1178;25175;-61
2023/04/15 06:30:23;;;;;;;;;20.50;12.75;;;;;;;;118171;1177;25670;-61
2023/04/15 06:32:52;;;;;;;;;25.33;16.67;;;;;;;;118170;1177;24894;-62
2023/04/15 06:35:21;;;;;;;;;21.67;14.33;;;;;;;;118217;1190;25318;-61
2023/04/15 06:37:50;;;;;;;;;14.00;11.33;;;;;;;;118178;1177;26385;-62
2023/04/15 06:40:18;;;;;;;;;22.25;11.50;;;;;;;;118132;1188;25553;-61
2023/04/15 06:42:47;;;;;;;;;24.00;18.33;;;;;;;;118153;1190;25078;-61
2023/04/15 06:45:16;;;;;;;;;17.00;13.00;;;;;;;;118182;1187;25025;-60
2023/04/15 06:47:44;;;;;;;;;17.25;14.00;;;;;;;;118154;1178;25554;-60
2023/04/15 06:50:13;;;;;;;;;27.50;15.50;;;;;;;;118148;1177;25207;-60
2023/04/15 06:52:41;;;;;;;;;16.75;16.25;;;;;;;;118139;1190;24966;-61
2023/04/15 06:55:10;;;;;;;;;23.67;14.00;;;;;;;;118127;1178;24849;-60
2023/04/15 06:57:38;;;;;;;;;28.33;14.67;;;;;;;;118162;1177;25434;-60
2023/04/15 07:00:10;;;;;;;;;24.67;17.67;;;;;;;;117859;1190;24931;-61
2023/04/15 07:02:38;;;;;;;;;26.67;18.00;;;;;;;;117869;1177;26168;-60
2023/04/15 07:05:07;;;;;;;;;21.33;16.00;;;;;;;;118005;1177;24818;-61
2023/04/15 07:07:36;;;;;;;;;24.00;15.00;;;;;;;;118152;1177;25737;-60
2023/04/15 07:10:05;;;;;;;;;16.75;7.25;;;;;;;;117911;1179;25281;-60
2023/04/15 07:12:34;;;;;;;;;21.00;13.00;;;;;;;;117929;1178;25529;-60
2023/04/15 07:15:04;;;;;;;;;27.00;11.50;;;;;;;;118193;1177;24941;-61
2023/04/15 07:17:32;;;;;;;;;17.75;12.25;;;;;;;;118098;1190;25368;-61
2023/04/15 07:20:03;;;;;;;;;15.33;13.33;;;;;;;;118011;1190;24930;-60
2023/04/15 07:22:32;;;;;;;;;19.00;12.33;;;;;;;;118020;1187;25669;-61
2023/04/15 07:25:00;;;;;;;;;21.00;13.50;;;;;;;;118143;1178;24679;-61
2023/04/15 07:27:28;;;;;;;;;23.33;12.33;;;;;;;;118053;1177;25334;-62
2023/04/15 07:29:57;;;;;;;;;18.33;14.00;;;;;;;;118177;1178;25097;-61
2023/04/15 07:32:26;;;;;;;;;20.75;12.00;;;;;;;;118004;1181;25395;-61
2023/04/15 07:34:55;;;;;;;;;17.25;11.25;;;;;;;;118145;1190;25703;-62
2023/04/15 07:37:24;;;;;;;;;15.33;12.33;;;;;;;;117954;1178;25692;-63
2023/04/15 07:39:53;;;;;;;;;20.75;12.75;;;;;;;;118067;1177;24871;-61
2023/04/15 07:42:21;;;;;;;;;13.75;11.50;;;;;;;;117920;1180;25052;-62
2023/04/15 07:44:50;;;;;;;;;21.50;15.50;;;;;;;;118160;1177;25173;-61
2023/04/15 07:47:19;;;;;;;;;18.33;11.67;;;;;;;;118178;1177;25114;-61
2023/04/15 07:49:48;;;;;;;;;20.75;13.75;;;;;;;;118189;1184;25825;-61
2023/04/15 07:52:16;;;;;;;;;21.25;12.00;;;;;;;;117910;1182;24904;-61
2023/04/15 07:54:45;;;;;;;;;23.50;12.75;;;;;;;;118162;1177;25304;-60
2023/04/15 07:57:13;;;;;;;;;15.00;10.33;;;;;;;;118218;1178;25400;-60
2023/04/15 07:59:41;;;;;;;;;20.00;12.50;;;;;;;;118117;1177;26459;-61
2023/04/15 08:02:10;;;;;;;;;15.67;11.00;;;;;;;;117886;1177;25255;-62
2023/04/15 08:04:39;;;;;;;;;17.00;11.50;;;;;;;;117900;1179;25035;-62
2023/04/15 08:07:08;;;;;;;;;15.00;8.67;;;;;;;;117924;1190;25982;-60
2023/04/15 08:09:36;;;;;;;;;17.67;11.67;;;;;;;;117933;1177;25517;-62
2023/04/15 08:12:05;;;;;;;;;14.33;12.33;;;;;;;;117917;1181;25593;-59
2023/04/15 08:14:34;;;;;;;;;15.00;12.00;;;;;;;;118022;1183;24834;-60
2023/04/15 08:17:03;;;;;;;;;21.00;12.33;;;;;;;;118227;1190;25240;-60
2023/04/15 08:19:31;;;;;;;;;14.50;10.00;;;;;;;;118238;1183;25217;-60
2023/04/15 08:22:00;;;;;;;;;16.67;12.33;;;;;;;;117860;1180;24821;-59
2023/04/15 08:24:30;;;;;;;;;17.33;14.67;;;;;;;;118137;1182;25156;-59
2023/04/15 08:26:58;;;;;;;;;15.00;11.00;;;;;;;;117810;1190;24772;-60
2023/04/15 08:29:27;;;;;;;;;12.00;9.50;;;;;;;;117931;1180;24787;-60
2023/04/15 08:31:55;;;;;;;;;11.33;8.00;;;;;;;;118175;1178;24859;-60
2023/04/15 08:34:24;;;;;;;;;12.00;10.00;;;;;;;;117879;1190;25628;-61
2023/04/15 08:36:53;;;;;;;;;14.75;11.50;;;;;;;;117964;1178;24776;-61
2023/04/15 08:39:21;;;;;;;;;12.75;9.75;;;;;;;;118066;1177;25428;-63
2023/04/15 08:42:02;;;;;;;;;15.25;11.00;;;;;;;;117996;1177;25548;-66
2023/04/15 08:44:33;;;;;;;;;15.00;13.00;;;;;;;;117968;1177;25643;-63
2023/04/15 08:47:02;;;;;;;;;13.67;11.00;;;;;;;;118030;1190;25645;-63
2023/04/15 08:49:31;;;;;;;;;9.00;5.00;;;;;;;;117965;1178;25304;-61
2023/04/15 08:52:01;;;;;;;;;15.67;11.00;;;;;;;;117884;1179;25581;-61
2023/04/15 08:54:29;;;;;;;;;15.25;10.50;;;;;;;;117980;1177;24789;-60
2023/04/15 08:56:58;;;;;;;;;16.25;10.25;;;;;;;;118137;1177;25427;-60
2023/04/15 08:59:30;;;;;;;;;16.67;10.00;;;;;;;;118033;1177;25628;-60
2023/04/15 09:01:59;;;;;;;;;18.00;12.50;;;;;;;;117902;1180;25283;-60
2023/04/15 09:04:28;;;;;;;;;15.00;10.00;;;;;;;;117875;1180;24870;-62
2023/04/15 09:06:57;;;;;;;;;11.00;7.33;;;;;;;;117866;1190;25677;-62
2023/04/15 09:09:26;;;;;;;;;17.50;11.50;;;;;;;;117901;1180;25421;-63
2023/04/15 09:11:55;;;;;;;;;14.00;11.00;;;;;;;;117995;1177;25366;-60
2023/04/15 09:14:24;;;;;;;;;13.67;8.00;;;;;;;;118133;1179;24806;-60
2023/04/15 09:17:00;;;;;;;;;18.75;10.25;;;;;;;;117956;1180;25339;-60
2023/04/15 09:19:30;;;;;;;;;13.25;9.75;;;;;;;;118065;1177;25666;-61
2023/04/15 09:21:59;;;;;;;;;16.75;10.25;;;;;;;;117990;1177;25166;-62
2023/04/15 09:24:38;;;;;;;;;13.00;10.00;;;;;;;;117883;1180;25492;-61
2023/04/15 09:27:07;;;;;;;;;13.00;9.00;;;;;;;;118010;1184;25346;-61
2023/04/15 09:29:35;;;;;;;;;12.00;9.33;;;;;;;;117861;1190;25193;-61
2023/04/15 09:32:12;;;;;;;;;10.67;8.33;;;;;;;;117935;1177;24986;-62
2023/04/15 09:34:40;;;;;;;;;15.00;9.00;;;;;;;;117950;1180;26184;-61
2023/04/15 09:37:10;;;;;;;;;12.50;9.25;;;;;;;;118144;1177;25545;-61
2023/04/15 09:39:49;;;;;;;;;12.00;9.33;;;;;;;;117933;1177;25150;-61
2023/04/15 09:42:25;;;;;;;;;13.25;10.50;;;;;;;;118033;1177;25054;-61
2023/04/15 09:44:54;;;;;;;;;12.00;9.00;;;;;;;;117975;1190;24841;-61
2023/04/15 09:47:30;;;;;;;;;13.67;9.33;;;;;;;;117895;1181;25352;-61
2023/04/15 09:49:59;;;;;;;;;10.25;10.25;;;;;;;;117907;1183;25024;-61
2023/04/15 09:52:29;;;;;;;;;13.67;9.00;;;;;;;;117808;1186;25155;-60
2023/04/15 09:54:58;;;;;;;;;14.00;9.00;;;;;;;;118068;1189;25293;-61
2023/04/15 09:57:35;;;;;;;;;12.75;8.25;;;;;;;;118142;1177;25659;-60
2023/04/15 10:00:06;;;;;;;;;4.00;4.00;;;;;;;;118046;1177;24819;-59
2023/04/15 10:02:36;;;;;;;;;13.50;9.00;;;;;;;;118174;1177;24958;-60
2023/04/15 10:05:06;;;;;;;;;13.33;11.33;;;;;;;;118008;1182;25578;-59
2023/04/15 10:07:34;;;;;;;;;16.25;10.25;;;;;;;;118133;1177;24730;-59
2023/04/15 10:10:04;;;;;;;;;11.50;7.00;;;;;;;;117819;1187;25514;-59
2023/04/15 10:12:32;;;;;;;;;11.50;5.00;;;;;;;;117819;1177;24922;-60
2023/04/15 10:15:06;;;;;;;;;7.67;7.00;;;;;;;;117839;1180;24771;-60
2023/04/15 10:17:35;;;;;;;;;12.67;8.00;;;;;;;;117892;1179;24932;-59
2023/04/15 10:20:05;;;;;;;;;12.67;10.33;;;;;;;;117923;1181;25303;-59
2023/04/15 10:22:34;;;;;;;;;12.00;9.00;;;;;;;;117847;1177;25484;-59
2023/04/15 10:25:03;;;;;;;;;11.33;7.00;;;;;;;;118172;1177;25060;-60
2023/04/15 10:27:32;;;;;;;;;9.67;7.00;;;;;;;;118181;1177;25245;-60
2023/04/15 10:30:04;;;;;;;;;9.50;8.50;;;;;;;;117941;1188;26365;-62
2023/04/15 10:32:32;;;;;;;;;8.50;6.50;;;;;;;;117898;1180;25670;-61
2023/04/15 10:35:03;;;;;;;;;8.00;8.00;;;;;;;;117974;1177;25567;-61
2023/04/15 10:37:36;;;;;;;;;15.50;6.75;;;;;;;;118129;1177;25416;-61
2023/04/15 10:40:34;;;;;;;;;14.25;11.00;;;;;;;;117958;1187;25666;-60
2023/04/15 10:43:03;;;;;;;;;7.67;7.67;;;;;;;;117756;1184;25604;-60
2023/04/15 10:45:35;;;;;;;;;12.25;9.00;;;;;;;;117851;1180;25290;-59
2023/04/15 10:48:06;;;;;;;;;6.50;6.00;;;;;;;;117938;1180;24901;-60
2023/04/15 10:50:36;;;;;;;;;13.00;7.00;;;;;;;;117886;1180;25586;-60
2023/04/15 10:53:04;;;;;;;;;12.00;10.00;;;;;;;;117911;1181;24952;-60
2023/04/15 10:55:33;;;;;;;;;9.67;8.67;;;;;;;;117831;1190;24818;-61
2023/04/15 10:58:02;;;;;;;;;8.00;8.00;;;;;;;;117896;1180;24896;-60
2023/04/15 11:00:31;;;;;;;;;14.75;10.25;;;;;;;;118132;1178;25562;-60
2023/04/15 11:03:07;;;;;;;;;12.33;11.00;;;;;;;;117875;1178;25190;-59
2023/04/15 11:05:51;;;;;;;;;12.67;10.00;;;;;;;;117834;1190;25131;-61
2023/04/15 11:08:20;;;;;;;;;14.50;11.00;;;;;;;;118109;1190;25415;-61
2023/04/15 11:10:52;;;;;;;;;9.75;9.75;;;;;;;;117916;1179;25624;-61
2023/04/15 11:13:23;;;;;;;;;11.00;10.00;;;;;;;;118155;1177;24921;-61
2023/04/15 11:15:56;;;;;;;;;10.67;10.00;;;;;;;;118113;1190;25364;-61
2023/04/15 11:18:28;;;;;;;;;9.67;8.00;;;;;;;;118134;1190;25554;-61
2023/04/15 11:21:02;;;;;;;;;7.67;7.00;;;;;;;;118198;1181;25695;-61
2023/04/15 11:23:32;;;;;;;;;9.67;8.33;;;;;;;;118115;1177;25433;-60
2023/04/15 11:26:04;;;;;;;;;12.00;9.00;;;;;;;;117861;1178;25526;-60
2023/04/15 11:28:33;;;;;;;;;10.00;10.00;;;;;;;;117939;1179;25132;-59
2023/04/15 11:31:09;;;;;;;;;7.75;7.75;;;;;;;;118162;1177;25019;-59
2023/04/15 11:33:55;;;;;;;;;12.00;11.00;;;;;;;;118192;1177;24974;-62
2023/04/15 11:36:33;;;;;;;;;6.75;6.50;;;;;;;;118202;1177;25332;-62
2023/04/15 11:39:01;;;;;;;;;9.00;8.50;;;;;;;;117929;1177;25631;-65
2023/04/15 11:41:30;;;;;;;;;9.67;7.00;;;;;;;;118017;1177;25155;-65
2023/04/15 11:43:58;;;;;;;;;8.33;7.33;;;;;;;;117891;1177;25639;-68
2023/04/15 11:46:30;;;;;;;;;8.50;7.00;;;;;;;;117867;1181;25067;-62
2023/04/15 11:48:59;;;;;;;;;11.00;9.00;;;;;;;;117869;1181;25413;-63
2023/04/15 11:51:32;;;;;;;;;8.00;8.00;;;;;;;;118169;1190;25252;-64
2023/04/15 11:54:01;;;;;;;;;11.50;8.50;;;;;;;;118159;1177;25486;-64
2023/04/15 11:56:30;;;;;;;;;8.00;6.67;;;;;;;;117939;1177;24727;-65
2023/04/15 11:58:59;;;;;;;;;11.00;9.00;;;;;;;;118135;1178;25434;-68
2023/04/15 12:01:38;;;;;;;;;6.00;6.00;;;;;;;;117885;1190;24757;-72
2023/04/15 12:04:21;;;;;;;;;6.00;5.50;;;;;;;;118189;1190;24760;-65
2023/04/15 12:06:52;;;;;;;;;11.25;9.00;;;;;;;;117908;1177;24930;-61
2023/04/15 12:09:21;;;;;;;;;8.75;7.25;;;;;;;;118158;1178;25277;-62
2023/04/15 12:11:51;;;;;;;;;8.00;7.50;;;;;;;;117992;1177;25545;-61
2023/04/15 12:14:24;;;;;;;;;10.50;9.00;;;;;;;;117876;1179;25526;-61
2023/04/15 12:16:55;;;;;;;;;7.67;7.00;;;;;;;;118016;1177;25652;-62
2023/04/15 12:19:31;;;;;;;;;6.50;5.50;;;;;;;;117778;1180;25631;-61
2023/04/15 12:22:10;;;;;;;;;6.25;6.25;;;;;;;;118096;1177;24843;-62
2023/04/15 12:24:39;;;;;;;;;6.50;5.00;;;;;;;;118139;1177;25177;-61
2023/04/15 12:27:10;;;;;;;;;9.67;6.67;;;;;;;;117820;1180;24779;-60
2023/04/15 12:29:39;;;;;;;;;8.00;6.33;;;;;;;;117835;1177;24879;-60
2023/04/15 12:32:15;;;;;;;;;8.33;6.00;;;;;;;;117876;1177;25601;-61
2023/04/15 12:34:49;;;;;;;;;10.00;5.25;;;;;;;;117872;1177;25064;-61
2023/04/15 12:37:18;;;;;;;;;8.00;7.50;;;;;;;;117881;1177;24742;-61
2023/04/15 12:39:48;;;;;;;;;8.00;6.00;;;;;;;;118005;1177;25786;-61
2023/04/15 12:42:17;;;;;;;;;7.00;6.67;;;;;;;;118157;1188;25271;-62
2023/04/15 12:44:46;;;;;;;;;8.75;7.50;;;;;;;;118129;1177;25052;-61
2023/04/15 12:47:15;;;;;;;;;8.50;6.00;;;;;;;;117980;1187;25517;-61
2023/04/15 12:49:43;;;;;;;;;5.00;4.25;;;;;;;;117918;1178;25321;-62
2023/04/15 12:52:12;;;;;;;;;8.50;7.00;;;;;;;;117858;1177;25266;-62
2023/04/15 12:54:40;;;;;;;;;7.00;6.00;;;;;;;;117850;1190;25395;-62
2023/04/15 12:57:09;;;;;;;;;6.00;6.00;;;;;;;;117831;1187;24774;-63
2023/04/15 12:59:37;;;;;;;;;7.00;6.00;;;;;;;;117962;1177;25430;-62
2023/04/15 13:02:07;;;;;;;;;5.33;5.33;;;;;;;;117882;1177;25006;-62
2023/04/15 13:04:36;;;;;;;;;8.50;7.00;;;;;;;;117953;1177;24718;-62
2023/04/15 13:07:05;;;;;;;;;8.00;7.00;;;;;;;;117824;1177;24824;-62
2023/04/15 13:09:33;;;;;;;;;6.50;6.00;;;;;;;;117839;1184;24715;-62
2023/04/15 13:12:04;;;;;;;;;7.67;5.00;;;;;;;;117992;1178;24657;-62
2023/04/15 13:14:32;;;;;;;;;10.00;7.00;;;;;;;;118102;1177;25002;-62
2023/04/15 13:17:03;;;;;;;;;9.00;5.00;;;;;;;;117916;1177;24831;-62
2023/04/15 13:19:31;;;;;;;;;7.00;5.00;;;;;;;;118113;1177;25403;-62
2023/04/15 13:22:00;;;;;;;;;7.00;7.00;;;;;;;;118191;1190;25687;-62
2023/04/15 13:24:29;;;;;;;;;7.00;5.67;;;;;;;;118217;1178;24926;-63
2023/04/15 13:26:58;;;;;;;;;8.67;5.00;;;;;;;;118136;1190;24869;-62
2023/04/15 13:29:26;;;;;;;;;8.00;5.00;;;;;;;;118078;1177;25585;-62
2023/04/15 13:31:55;;;;;;;;;5.00;5.00;;;;;;;;117791;1190;25681;-60
2023/04/15 13:34:23;;;;;;;;;5.00;5.00;;;;;;;;117914;1190;26020;-60
2023/04/15 13:36:52;;;;;;;;;6.25;5.25;;;;;;;;117867;1190;25017;-59
2023/04/15 13:39:20;;;;;;;;;8.00;7.00;;;;;;;;118169;1190;25000;-62
2023/04/15 13:41:49;;;;;;;;;5.00;5.00;;;;;;;;118042;1178;25455;-61
2023/04/15 13:44:17;;;;;;;;;6.50;6.50;;;;;;;;117911;1180;25507;-60
2023/04/15 13:46:49;;;;;;;;;6.50;4.75;;;;;;;;117934;1179;25248;-60
2023/04/15 13:49:17;;;;;;;;;6.00;6.00;;;;;;;;118129;1189;25422;-60
2023/04/15 13:51:46;;;;;;;;;6.00;5.00;;;;;;;;118120;1189;24930;-60
2023/04/15 13:54:14;;;;;;;;;7.00;5.00;;;;;;;;118196;1181;25433;-60
2023/04/15 13:56:42;;;;;;;;;6.00;5.00;;;;;;;;117954;1177;25517;-60
2023/04/15 13:59:11;;;;;;;;;6.75;5.00;;;;;;;;117852;1177;25719;-62
2023/04/15 14:01:40;;;;;;;;;5.00;5.00;;;;;;;;117870;1177;24964;-61
2023/04/15 14:04:08;;;;;;;;;3.50;3.50;;;;;;;;118147;1177;25237;-62
2023/04/15 14:06:37;;;;;;;;;4.33;4.33;;;;;;;;118115;1177;24819;-63
2023/04/15 14:09:06;;;;;;;;;11.33;5.33;;;;;;;;118114;1184;24841;-63
2023/04/15 14:11:35;;;;;;;;;7.00;5.25;;;;;;;;118168;1177;25149;-62
2023/04/15 14:14:04;;;;;;;;;5.00;5.00;;;;;;;;118167;1190;24820;-63
2023/04/15 14:16:33;;;;;;;;;6.00;5.00;;;;;;;;118049;1186;24983;-63
2023/04/15 14:19:02;;;;;;;;;5.00;4.75;;;;;;;;117862;1190;25570;-62
2023/04/15 14:21:31;;;;;;;;;8.33;7.00;;;;;;;;118078;1177;25612;-63
2023/04/15 14:24:00;;;;;;;;;5.33;5.33;;;;;;;;118079;1178;25083;-62
2023/04/15 14:26:28;;;;;;;;;7.00;6.00;;;;;;;;117872;1177;25407;-62
2023/04/15 14:28:56;;;;;;;;;7.00;6.00;;;;;;;;117844;1190;25356;-62